Time;durP1;ratioP1;P1;durP2;ratioP2;P2;SDS_P1;SDS_P2;PMS_P1;PMS_P2;Temp;Humidity;BMP_temperature;BMP_pressure;BME280_temperature;BME280_humidity;BME280_pressure;Samples;Min_cycle;Max_cycle;Signal;HPM_P1;HPM_P2
2022/02/15 00:00:08;;;;;;;2.80;0.70;;;3.90;99.90;;;;;;2089720;28;20188;-71
2022/02/15 00:01:09;;;;;;;3.65;0.80;;;4.00;99.90;;;;;;2088994;28;20191;-71
2022/02/15 00:02:09;;;;;;;3.30;1.60;;;4.10;99.90;;;;;;2089053;28;20218;-71
2022/02/15 00:03:10;;;;;;;2.57;0.87;;;4.00;99.90;;;;;;2089625;28;20278;-71
2022/02/15 00:04:10;;;;;;;3.10;0.87;;;4.10;99.90;;;;;;2089375;28;20215;-71
2022/02/15 00:05:11;;;;;;;2.67;0.80;;;4.10;99.90;;;;;;2089500;28;20646;-71
2022/02/15 00:06:12;;;;;;;2.00;0.73;;;4.10;99.90;;;;;;2089588;28;20890;-71
2022/02/15 00:07:12;;;;;;;1.73;0.80;;;4.20;99.90;;;;;;2089775;28;20958;-71
2022/02/15 00:08:13;;;;;;;3.27;0.80;;;4.20;99.90;;;;;;2089579;28;20190;-70
2022/02/15 00:09:14;;;;;;;1.83;1.00;;;4.20;99.90;;;;;;2089580;28;20566;-71
2022/02/15 00:10:15;;;;;;;3.83;1.35;;;4.20;99.90;;;;;;2089592;28;20175;-71
2022/02/15 00:11:16;;;;;;;1.20;0.70;;;4.30;99.90;;;;;;2088882;28;20183;-71
2022/02/15 00:12:18;;;;;;;2.73;0.93;;;4.30;99.90;;;;;;2088979;28;20241;-71
2022/02/15 00:13:18;;;;;;;1.85;0.70;;;4.30;99.90;;;;;;2089573;28;20189;-71
2022/02/15 00:14:19;;;;;;;1.70;0.80;;;4.30;99.70;;;;;;2088733;28;20194;-71
2022/02/15 00:15:20;;;;;;;6.03;0.90;;;4.30;99.50;;;;;;2080689;28;20177;-71
2022/02/15 00:16:21;;;;;;;3.03;1.00;;;4.30;99.40;;;;;;2088802;28;20647;-71
2022/02/15 00:17:21;;;;;;;1.23;0.80;;;4.30;99.30;;;;;;2097200;28;20210;-71
2022/02/15 00:18:22;;;;;;;3.03;0.80;;;4.30;99.10;;;;;;2089532;28;20294;-71
2022/02/15 00:19:22;;;;;;;2.90;0.80;;;4.20;99.70;;;;;;2089532;28;20191;-71
2022/02/15 00:20:23;;;;;;;1.77;0.80;;;4.20;99.90;;;;;;2088935;28;20678;-71
2022/02/15 00:21:24;;;;;;;0.93;0.70;;;4.20;99.70;;;;;;2088979;28;20631;-71
2022/02/15 00:22:25;;;;;;;6.23;0.90;;;4.20;99.90;;;;;;2096967;28;20855;-71
2022/02/15 00:23:25;;;;;;;0.87;0.57;;;4.20;99.90;;;;;;2105487;28;20188;-71
2022/02/15 00:24:26;;;;;;;3.90;0.70;;;4.20;99.90;;;;;;2088940;28;20179;-71
2022/02/15 00:25:27;;;;;;;1.83;0.80;;;4.30;99.90;;;;;;2088889;28;20183;-71
2022/02/15 00:26:27;;;;;;;1.10;0.60;;;4.30;99.90;;;;;;2080605;28;20180;-71
2022/02/15 00:27:28;;;;;;;3.67;0.73;;;4.30;99.90;;;;;;2088797;28;20213;-71
2022/02/15 00:28:29;;;;;;;2.37;0.80;;;4.30;99.00;;;;;;2088785;28;20617;-71
2022/02/15 00:29:29;;;;;;;2.67;0.80;;;4.30;99.30;;;;;;2089405;28;20171;-71
2022/02/15 00:30:30;;;;;;;3.33;0.73;;;4.30;99.10;;;;;;2089438;28;20258;-71
2022/02/15 00:31:31;;;;;;;3.13;0.98;;;4.30;99.50;;;;;;2089444;28;20233;-71
2022/02/15 00:32:32;;;;;;;4.90;0.70;;;4.30;99.00;;;;;;2089458;28;20179;-71
2022/02/15 00:33:32;;;;;;;1.70;0.80;;;4.30;98.70;;;;;;2089313;28;20252;-71
2022/02/15 00:34:34;;;;;;;2.40;0.90;;;4.30;98.70;;;;;;2089192;28;20669;-71
2022/02/15 00:35:35;;;;;;;2.40;0.70;;;4.30;99.40;;;;;;2088791;28;20553;-71
2022/02/15 00:36:35;;;;;;;2.73;0.80;;;4.30;99.00;;;;;;2088803;28;20180;-71
2022/02/15 00:37:36;;;;;;;1.50;0.87;;;4.40;98.60;;;;;;2105426;28;20181;-71
2022/02/15 00:38:37;;;;;;;3.93;0.80;;;4.30;98.90;;;;;;2096956;28;20178;-71
2022/02/15 00:39:38;;;;;;;1.67;1.00;;;4.30;99.30;;;;;;2088741;28;20183;-71
2022/02/15 00:40:38;;;;;;;1.10;0.73;;;4.20;99.50;;;;;;2088626;28;20216;-71
2022/02/15 00:41:39;;;;;;;1.73;0.70;;;4.20;99.90;;;;;;2097001;28;20705;-71
2022/02/15 00:42:41;;;;;;;3.13;1.30;;;4.30;99.50;;;;;;2105353;28;20180;-71
2022/02/15 00:43:41;;;;;;;1.58;0.90;;;4.20;99.50;;;;;;2088440;28;20198;-71
2022/02/15 00:44:42;;;;;;;2.60;0.80;;;4.10;99.80;;;;;;2080380;28;20176;-71
2022/02/15 00:45:43;;;;;;;0.80;0.70;;;4.00;99.90;;;;;;2088733;28;20175;-71
2022/02/15 00:46:44;;;;;;;1.23;0.67;;;4.00;99.90;;;;;;2088762;28;20176;-71
2022/02/15 00:47:44;;;;;;;3.87;0.77;;;3.80;99.90;;;;;;2088085;28;20609;-71
2022/02/15 00:48:45;;;;;;;1.70;1.00;;;3.70;99.90;;;;;;2088733;28;20183;-71
2022/02/15 00:49:46;;;;;;;3.37;0.70;;;3.70;99.90;;;;;;2088539;28;20262;-71
2022/02/15 00:50:46;;;;;;;1.07;0.63;;;3.80;99.90;;;;;;2089394;28;20179;-70
2022/02/15 00:51:47;;;;;;;2.07;0.70;;;3.90;99.90;;;;;;2089337;28;20205;-71
2022/02/15 00:52:48;;;;;;;1.63;0.90;;;3.90;99.90;;;;;;2088704;28;20274;-71
2022/02/15 00:53:48;;;;;;;1.70;0.73;;;3.90;99.90;;;;;;2088584;28;20643;-71
2022/02/15 00:54:49;;;;;;;2.40;0.80;;;4.00;99.90;;;;;;2089058;28;20186;-71
2022/02/15 00:55:50;;;;;;;4.43;0.83;;;4.10;99.90;;;;;;2088570;28;20185;-71
2022/02/15 00:56:51;;;;;;;4.27;0.90;;;4.20;99.90;;;;;;2088692;28;20183;-71
2022/02/15 00:57:51;;;;;;;3.33;0.80;;;4.20;99.90;;;;;;2080363;28;20209;-71
2022/02/15 00:58:52;;;;;;;1.73;0.80;;;4.20;99.70;;;;;;2080271;28;20206;-71
2022/02/15 00:59:53;;;;;;;1.83;0.70;;;4.20;99.90;;;;;;2088549;28;20819;-71
2022/02/15 01:00:53;;;;;;;0.93;0.60;;;4.20;99.90;;;;;;2089276;28;20269;-71
2022/02/15 01:01:54;;;;;;;1.27;0.63;;;4.10;99.90;;;;;;2089221;28;20182;-71
2022/02/15 01:02:55;;;;;;;0.73;0.60;;;4.10;99.90;;;;;;2088670;28;20195;-71
2022/02/15 01:03:55;;;;;;;2.73;0.70;;;4.10;99.90;;;;;;2088390;28;20303;-71
2022/02/15 01:04:56;;;;;;;2.97;0.80;;;4.10;99.90;;;;;;2089117;28;20266;-71
2022/02/15 01:05:59;;;;;;;0.83;0.77;;;4.10;99.90;;;;;;2088595;28;20195;-71
2022/02/15 01:07:00;;;;;;;1.58;0.70;;;4.20;99.90;;;;;;2088603;28;20672;-71
2022/02/15 01:08:00;;;;;;;1.87;0.80;;;4.20;99.80;;;;;;2088604;28;20208;-71
2022/02/15 01:09:02;;;;;;;5.10;1.50;;;4.20;99.90;;;;;;2089107;28;20643;-71
2022/02/15 01:10:04;;;;;;;1.35;0.57;;;4.20;99.90;;;;;;2088590;28;20206;-71
2022/02/15 01:11:04;;;;;;;1.63;0.60;;;4.20;99.90;;;;;;2088507;28;20194;-71
2022/02/15 01:12:06;;;;;;;1.00;0.80;;;4.20;99.90;;;;;;2088568;28;20187;-71
2022/02/15 01:13:07;;;;;;;2.90;0.60;;;4.20;99.90;;;;;;2080539;28;20257;-71
2022/02/15 01:14:09;;;;;;;5.82;0.88;;;4.20;99.90;;;;;;2088393;28;20210;-71
2022/02/15 01:15:09;;;;;;;1.98;0.60;;;4.30;99.90;;;;;;2080239;28;20192;-71
2022/02/15 01:16:12;;;;;;;3.30;1.13;;;4.20;99.90;;;;;;2088456;28;20301;-71
2022/02/15 01:17:13;;;;;;;3.25;0.57;;;4.20;99.90;;;;;;2089183;28;20180;-71
2022/02/15 01:18:14;;;;;;;1.77;0.75;;;4.30;99.90;;;;;;2080156;28;20604;-71
2022/02/15 01:19:15;;;;;;;1.00;0.90;;;4.30;99.90;;;;;;2080284;28;20179;-71
2022/02/15 01:20:15;;;;;;;1.83;1.10;;;4.30;99.90;;;;;;2089153;28;20185;-71
2022/02/15 01:21:16;;;;;;;3.60;0.67;;;4.30;99.90;;;;;;2088457;28;20194;-71
2022/02/15 01:22:17;;;;;;;1.37;0.80;;;4.30;99.90;;;;;;2088519;28;20187;-71
2022/02/15 01:23:17;;;;;;;1.50;0.63;;;4.30;99.90;;;;;;2088416;28;20257;-71
2022/02/15 01:24:18;;;;;;;3.53;0.73;;;4.30;99.90;;;;;;2088895;28;20214;-71
2022/02/15 01:25:19;;;;;;;1.57;0.70;;;4.30;99.90;;;;;;2089090;28;20241;-71
2022/02/15 01:26:19;;;;;;;4.33;0.67;;;4.30;99.90;;;;;;2089184;28;20180;-71
2022/02/15 01:27:20;;;;;;;2.07;0.83;;;4.30;99.90;;;;;;2089039;28;20183;-71
2022/02/15 01:28:21;;;;;;;1.50;0.70;;;4.40;99.90;;;;;;2089130;28;20191;-71
2022/02/15 01:29:21;;;;;;;1.93;0.70;;;4.30;99.90;;;;;;2089039;28;20187;-71
2022/02/15 01:30:22;;;;;;;3.13;0.80;;;4.30;99.90;;;;;;2088488;28;20234;-71
2022/02/15 01:31:23;;;;;;;1.43;1.03;;;4.40;99.90;;;;;;2088444;28;20235;-71
2022/02/15 01:32:23;;;;;;;5.47;1.10;;;4.30;99.90;;;;;;2088529;28;20179;-71
2022/02/15 01:33:24;;;;;;;3.23;0.70;;;4.30;99.90;;;;;;2088328;28;20191;-70
2022/02/15 01:34:25;;;;;;;2.43;0.70;;;4.30;99.90;;;;;;2088352;28;20192;-71
2022/02/15 01:35:25;;;;;;;1.53;0.77;;;4.20;99.90;;;;;;2089049;28;20278;-71
2022/02/15 01:36:26;;;;;;;2.87;0.90;;;4.20;99.90;;;;;;2089080;28;20265;-71
2022/02/15 01:37:27;;;;;;;1.37;0.70;;;4.10;99.90;;;;;;2088363;28;20563;-71
2022/02/15 01:38:28;;;;;;;1.80;0.80;;;4.00;99.90;;;;;;2088427;28;20184;-70
2022/02/15 01:39:29;;;;;;;3.03;0.85;;;4.00;99.90;;;;;;2088282;28;20175;-71
2022/02/15 01:40:31;;;;;;;3.80;0.80;;;4.10;99.90;;;;;;2079978;28;20218;-71
2022/02/15 01:41:31;;;;;;;0.95;0.70;;;4.20;99.90;;;;;;2080198;28;20190;-71
2022/02/15 01:42:32;;;;;;;1.53;0.73;;;4.20;99.90;;;;;;2088461;28;20187;-71
2022/02/15 01:43:44;;;;;;;0.90;0.57;;;4.20;99.90;;;;;;2088187;28;20195;-71
2022/02/15 01:44:45;;;;;;;1.83;0.75;;;4.20;99.90;;;;;;2081628;28;20195;-71
2022/02/15 01:45:46;;;;;;;2.60;1.00;;;4.10;99.90;;;;;;2096760;28;20184;-71
2022/02/15 01:46:48;;;;;;;2.00;0.70;;;4.30;99.90;;;;;;2105077;28;20664;-71
2022/02/15 01:47:49;;;;;;;2.40;0.80;;;4.30;99.90;;;;;;2104983;28;20189;-71
2022/02/15 01:48:49;;;;;;;2.97;0.97;;;4.30;99.90;;;;;;2096558;28;20182;-71
2022/02/15 01:49:50;;;;;;;1.20;0.70;;;4.20;99.90;;;;;;2088219;28;20188;-71
2022/02/15 01:50:51;;;;;;;2.17;0.90;;;4.20;99.90;;;;;;2088375;28;20183;-71
2022/02/15 01:51:52;;;;;;;1.23;0.70;;;4.20;99.90;;;;;;2088347;28;20187;-71
2022/02/15 01:52:53;;;;;;;5.83;1.13;;;4.20;99.90;;;;;;2105018;28;20183;-71
2022/02/15 01:53:53;;;;;;;2.27;1.03;;;4.20;99.90;;;;;;2096293;28;20206;-71
2022/02/15 01:54:58;;;;;;;1.00;0.80;;;4.30;99.90;;;;;;2079810;28;20192;-71
2022/02/15 01:56:00;;;;;;;2.55;0.88;;;4.30;99.90;;;;;;2080568;28;20194;-71
2022/02/15 01:57:00;;;;;;;2.13;0.80;;;4.30;99.90;;;;;;2080320;28;20277;-71
2022/02/15 01:58:01;;;;;;;2.20;0.77;;;4.30;99.90;;;;;;2088306;28;20252;-71
2022/02/15 01:59:02;;;;;;;3.27;0.90;;;4.40;99.90;;;;;;2088890;28;20853;-71
2022/02/15 02:00:08;;;;;;;2.47;0.85;;;4.40;99.90;;;;;;2088215;28;20187;-71
2022/02/15 02:01:08;;;;;;;1.65;0.90;;;4.40;99.90;;;;;;2088445;28;20186;-71
2022/02/15 02:02:09;;;;;;;1.67;0.70;;;4.30;99.90;;;;;;2088923;28;20210;-71
2022/02/15 02:03:10;;;;;;;1.20;0.77;;;4.30;99.90;;;;;;2088927;28;20222;-71
2022/02/15 02:05:47;;;;;;;1.23;0.90;;;4.30;99.90;;;;;;2088773;28;20298;-71
2022/02/15 02:05:49;;;;;;;2.17;0.80;;;4.30;99.90;;;;;;2088920;28;20171;-71
2022/02/15 02:06:50;;;;;;;1.95;0.90;;;4.20;99.90;;;;;;2088314;28;20167;-71
2022/02/15 02:07:51;;;;;;;2.70;1.07;;;4.20;99.90;;;;;;2088218;28;20654;-71
2022/02/15 02:08:51;;;;;;;2.03;1.00;;;4.20;99.90;;;;;;2088157;28;20538;-71
2022/02/15 02:09:56;;;;;;;2.80;0.93;;;4.20;99.90;;;;;;2089066;28;20179;-71
2022/02/15 02:10:56;;;;;;;1.67;1.40;;;4.20;99.90;;;;;;2079883;28;20184;-71
2022/02/15 02:11:58;;;;;;;1.10;0.80;;;4.30;99.90;;;;;;2080074;28;20185;-71
2022/02/15 02:13:00;;;;;;;1.77;1.33;;;4.40;99.90;;;;;;2088887;28;20201;-71
2022/02/15 02:14:01;;;;;;;1.80;0.82;;;4.40;99.90;;;;;;2088897;28;20210;-71
2022/02/15 02:15:17;;;;;;;3.25;0.90;;;4.30;99.90;;;;;;2088688;28;20209;-71
2022/02/15 02:16:31;;;;;;;2.55;0.80;;;4.40;99.90;;;;;;2088838;28;20178;-71
2022/02/15 02:17:32;;;;;;;2.00;0.90;;;4.40;99.90;;;;;;2088342;28;20162;-71
2022/02/15 02:18:32;;;;;;;1.90;0.90;;;4.40;99.90;;;;;;2088286;28;20182;-71
2022/02/15 02:19:33;;;;;;;1.50;1.00;;;4.40;99.90;;;;;;2088192;28;20563;-71
2022/02/15 02:20:34;;;;;;;1.57;0.90;;;4.40;99.90;;;;;;2088387;28;20574;-71
2022/02/15 02:21:38;;;;;;;1.00;0.90;;;4.50;99.90;;;;;;2088143;28;20175;-71
2022/02/15 02:22:40;;;;;;;1.25;0.85;;;4.40;99.90;;;;;;2088243;28;20249;-71
2022/02/15 02:23:41;;;;;;;1.90;0.85;;;4.30;99.90;;;;;;2088057;28;20219;-71
2022/02/15 02:24:41;;;;;;;1.27;0.82;;;4.40;99.90;;;;;;2088800;28;20555;-71
2022/02/15 02:25:43;;;;;;;3.00;1.00;;;4.30;99.90;;;;;;2088831;28;20190;-71
2022/02/15 02:26:44;;;;;;;1.55;1.05;;;4.30;99.90;;;;;;2088251;28;20593;-71
2022/02/15 02:27:46;;;;;;;2.83;1.00;;;4.30;99.90;;;;;;2088133;28;20194;-71
2022/02/15 02:28:47;;;;;;;1.88;1.17;;;4.40;99.90;;;;;;2088178;28;20179;-71
2022/02/15 02:29:50;;;;;;;1.00;0.87;;;4.40;99.90;;;;;;2088127;28;20200;-71
2022/02/15 02:30:51;;;;;;;2.20;0.85;;;4.50;99.90;;;;;;2088211;28;20178;-70
2022/02/15 02:31:52;;;;;;;1.13;0.90;;;4.50;99.90;;;;;;2088213;28;20208;-71
2022/02/15 02:32:53;;;;;;;1.60;0.80;;;4.50;99.90;;;;;;2088110;28;20225;-71
2022/02/15 02:33:59;;;;;;;2.43;1.00;;;4.50;99.90;;;;;;2088336;28;20204;-71
2022/02/15 02:35:01;;;;;;;1.85;0.70;;;4.50;99.90;;;;;;2080734;28;20171;-71
2022/02/15 02:36:02;;;;;;;0.80;0.75;;;4.50;99.90;;;;;;2080109;28;20733;-71
2022/02/15 02:37:03;;;;;;;0.80;0.77;;;4.50;99.90;;;;;;2088252;28;20191;-71
2022/02/15 02:38:04;;;;;;;1.85;0.85;;;4.40;99.90;;;;;;2088139;28;20188;-71
2022/02/15 02:39:04;;;;;;;2.00;0.70;;;4.40;99.90;;;;;;2088102;28;20191;-71
2022/02/15 02:40:08;;;;;;;2.20;0.80;;;4.50;99.90;;;;;;2088243;28;20187;-71
2022/02/15 02:41:09;;;;;;;2.15;0.70;;;4.40;99.90;;;;;;2088212;28;20225;-71
2022/02/15 02:42:11;;;;;;;1.33;0.83;;;4.50;99.90;;;;;;2079865;28;20238;-70
2022/02/15 02:43:12;;;;;;;0.82;0.60;;;4.50;99.90;;;;;;2080197;28;20188;-71
2022/02/15 02:44:12;;;;;;;1.67;0.70;;;4.50;99.90;;;;;;2088003;28;20349;-70
2022/02/15 02:45:20;;;;;;;0.70;0.70;;;4.50;99.90;;;;;;2088110;28;20238;-71
2022/02/15 02:46:20;;;;;;;0.77;0.77;;;4.50;99.90;;;;;;2080754;28;20202;-71
2022/02/15 02:47:21;;;;;;;1.00;0.70;;;4.50;99.90;;;;;;2088167;28;20658;-71
2022/02/15 02:48:22;;;;;;;0.90;0.80;;;4.50;99.90;;;;;;2088115;28;20746;-71
2022/02/15 02:49:22;;;;;;;1.03;0.93;;;4.40;99.90;;;;;;2088022;28;20184;-71
2022/02/15 02:50:24;;;;;;;0.70;0.70;;;4.50;99.90;;;;;;2088816;28;20579;-71
2022/02/15 02:51:25;;;;;;;1.88;0.82;;;4.60;99.90;;;;;;2088887;28;20187;-71
2022/02/15 02:52:26;;;;;;;0.80;0.80;;;4.60;99.90;;;;;;2088772;28;20191;-71
2022/02/15 02:53:26;;;;;;;1.13;0.70;;;4.60;99.90;;;;;;2088267;28;20180;-70
2022/02/15 02:54:27;;;;;;;1.53;0.77;;;4.60;99.90;;;;;;2088096;28;20183;-71
2022/02/15 02:55:29;;;;;;;1.30;0.77;;;4.50;99.90;;;;;;2088215;28;20183;-70
2022/02/15 02:56:29;;;;;;;1.45;1.10;;;4.40;99.90;;;;;;2088156;28;20918;-71
2022/02/15 02:57:30;;;;;;;1.63;0.90;;;4.40;99.90;;;;;;2088808;28;20223;-71
2022/02/15 02:58:31;;;;;;;1.20;0.90;;;4.50;99.90;;;;;;2088720;28;20188;-71
2022/02/15 02:59:33;;;;;;;0.90;0.80;;;4.50;99.90;;;;;;2088613;28;20183;-71
2022/02/15 03:00:33;;;;;;;1.05;0.70;;;4.60;99.90;;;;;;2087955;28;20175;-71
2022/02/15 03:01:34;;;;;;;2.07;1.30;;;4.50;99.90;;;;;;2088163;28;20605;-70
2022/02/15 03:02:35;;;;;;;1.47;1.00;;;4.40;99.90;;;;;;2088819;28;20184;-70
2022/02/15 03:03:35;;;;;;;0.87;0.73;;;4.50;99.90;;;;;;2088151;28;20252;-71
2022/02/15 03:04:36;;;;;;;0.90;0.90;;;4.50;99.90;;;;;;2088230;28;20187;-71
2022/02/15 03:05:37;;;;;;;1.30;0.80;;;4.50;99.90;;;;;;2088598;28;20195;-71
2022/02/15 03:06:38;;;;;;;2.77;1.10;;;4.60;99.90;;;;;;2088616;28;20211;-71
2022/02/15 03:07:39;;;;;;;2.60;0.90;;;4.50;99.90;;;;;;2088691;28;20169;-71
2022/02/15 03:08:39;;;;;;;0.70;0.70;;;4.50;99.90;;;;;;2088710;28;20160;-71
2022/02/15 03:09:40;;;;;;;1.13;0.80;;;4.50;99.90;;;;;;2079745;28;20847;-71
2022/02/15 03:10:41;;;;;;;1.52;1.30;;;4.50;99.90;;;;;;2080134;28;20661;-71
2022/02/15 03:11:42;;;;;;;0.97;0.87;;;4.50;99.90;;;;;;2089546;28;20204;-71
2022/02/15 03:12:42;;;;;;;1.30;1.10;;;4.50;99.90;;;;;;2090212;28;20542;-71
2022/02/15 03:13:43;;;;;;;1.13;1.00;;;4.40;99.90;;;;;;2090145;28;20899;-71
2022/02/15 03:14:44;;;;;;;2.70;1.10;;;4.40;99.90;;;;;;2090100;28;20304;-71
2022/02/15 03:15:45;;;;;;;1.57;1.13;;;4.40;99.90;;;;;;2090073;28;20179;-71
2022/02/15 03:16:45;;;;;;;0.97;0.73;;;4.30;99.90;;;;;;2090232;28;20183;-71
2022/02/15 03:17:46;;;;;;;1.67;1.10;;;4.30;99.90;;;;;;2090114;28;20177;-71
2022/02/15 03:18:47;;;;;;;1.10;1.00;;;4.30;99.90;;;;;;2090117;28;20674;-70
2022/02/15 03:19:47;;;;;;;2.13;0.90;;;4.20;99.90;;;;;;2090158;28;20671;-71
2022/02/15 03:20:48;;;;;;;1.60;1.00;;;4.30;99.90;;;;;;2089389;28;20649;-71
2022/02/15 03:21:49;;;;;;;1.30;1.00;;;4.30;99.90;;;;;;2089290;28;20183;-71
2022/02/15 03:22:49;;;;;;;1.90;1.30;;;4.40;99.90;;;;;;2089473;28;20186;-71
2022/02/15 03:23:51;;;;;;;1.37;0.90;;;4.40;99.90;;;;;;2089374;28;20646;-71
2022/02/15 03:24:51;;;;;;;1.00;0.90;;;4.50;99.90;;;;;;2089371;28;20547;-71
2022/02/15 03:25:52;;;;;;;1.30;1.10;;;4.50;99.90;;;;;;2089555;28;20188;-71
2022/02/15 03:26:53;;;;;;;1.00;0.90;;;4.50;99.90;;;;;;2089349;28;20239;-72
2022/02/15 03:27:54;;;;;;;1.00;0.90;;;4.40;99.90;;;;;;2081229;28;20177;-71
2022/02/15 03:28:54;;;;;;;2.03;1.27;;;4.40;99.90;;;;;;2081209;28;20180;-71
2022/02/15 03:29:55;;;;;;;1.40;0.90;;;4.40;99.90;;;;;;2089433;28;20172;-71
2022/02/15 03:30:56;;;;;;;1.17;0.93;;;4.40;99.90;;;;;;2090044;28;20195;-71
2022/02/15 03:31:56;;;;;;;0.97;0.90;;;4.40;99.90;;;;;;2089994;28;20639;-71
2022/02/15 03:32:58;;;;;;;1.27;1.07;;;4.30;99.90;;;;;;2090076;28;20632;-71
2022/02/15 03:33:59;;;;;;;1.95;1.00;;;4.30;99.90;;;;;;2089418;28;20222;-72
2022/02/15 03:35:00;;;;;;;2.00;1.27;;;4.20;99.90;;;;;;2089064;28;20697;-71
2022/02/15 03:36:03;;;;;;;2.45;1.02;;;4.20;99.90;;;;;;2089755;28;20188;-71
2022/02/15 03:37:04;;;;;;;1.25;1.00;;;4.30;99.90;;;;;;2089436;28;20229;-70
2022/02/15 03:38:05;;;;;;;2.77;1.23;;;4.30;99.90;;;;;;2087579;28;20210;-71
2022/02/15 03:39:08;;;;;;;2.70;1.70;;;4.30;99.90;;;;;;2089811;28;20624;-71
2022/02/15 03:40:09;;;;;;;1.85;1.20;;;4.30;99.90;;;;;;2089537;28;20184;-70
2022/02/15 03:43:49;;;;;;;2.55;1.10;;;4.30;99.90;;;;;;2085943;28;20211;-71
2022/02/15 03:44:50;;;;;;;2.20;1.17;;;4.40;99.90;;;;;;2089383;28;20220;-71
2022/02/15 03:45:51;;;;;;;1.70;1.20;;;4.50;99.90;;;;;;2089914;28;20203;-71
2022/02/15 03:46:52;;;;;;;1.93;1.27;;;4.60;99.90;;;;;;2089223;28;20670;-71
2022/02/15 03:47:54;;;;;;;1.65;1.13;;;4.50;99.90;;;;;;2081099;28;20213;-71
2022/02/15 03:48:54;;;;;;;0.93;0.85;;;4.50;99.90;;;;;;2081087;28;20275;-71
2022/02/15 03:49:55;;;;;;;1.67;1.10;;;4.50;99.90;;;;;;2089216;28;20223;-71
2022/02/15 03:50:56;;;;;;;1.97;1.00;;;4.60;99.90;;;;;;2089971;28;20179;-71
2022/02/15 03:51:57;;;;;;;2.27;1.03;;;4.70;99.90;;;;;;2089652;28;20183;-71
2022/02/15 03:52:57;;;;;;;3.10;1.40;;;4.70;99.90;;;;;;2089790;28;20260;-71
2022/02/15 03:53:58;;;;;;;1.37;1.10;;;4.70;99.90;;;;;;2088851;28;20208;-71
2022/02/15 03:54:59;;;;;;;1.50;1.13;;;4.70;99.90;;;;;;2089045;28;20183;-71
2022/02/15 03:56:00;;;;;;;3.17;1.27;;;4.70;99.90;;;;;;2089245;28;20179;-71
2022/02/15 03:57:01;;;;;;;1.70;1.20;;;4.60;99.90;;;;;;2089766;28;20183;-71
2022/02/15 03:58:02;;;;;;;1.27;1.00;;;4.60;99.90;;;;;;2089831;28;20181;-71
2022/02/15 03:59:04;;;;;;;3.17;1.25;;;4.70;99.90;;;;;;2088982;28;20213;-71
2022/02/15 04:00:07;;;;;;;1.27;1.17;;;4.60;99.90;;;;;;2081244;28;20188;-71
2022/02/15 04:01:09;;;;;;;2.35;1.10;;;4.70;99.90;;;;;;2089271;28;20242;-71
2022/02/15 04:02:09;;;;;;;2.13;1.33;;;4.70;99.90;;;;;;2089134;28;20188;-71
2022/02/15 04:03:10;;;;;;;2.73;1.10;;;4.70;99.90;;;;;;2089146;28;20609;-71
2022/02/15 04:04:11;;;;;;;1.93;1.30;;;4.70;99.90;;;;;;2089670;28;20208;-71
2022/02/15 04:05:11;;;;;;;1.23;1.00;;;4.60;99.90;;;;;;2089476;28;20184;-72
2022/02/15 04:06:12;;;;;;;1.27;1.10;;;4.60;99.90;;;;;;2089766;28;20179;-71
2022/02/15 04:07:13;;;;;;;1.20;1.03;;;4.60;99.90;;;;;;2089706;28;20187;-71
2022/02/15 04:08:13;;;;;;;1.33;1.23;;;4.50;99.90;;;;;;2089750;28;20188;-72
2022/02/15 04:09:14;;;;;;;3.20;1.30;;;4.50;99.90;;;;;;2089625;28;20204;-71
2022/02/15 04:10:17;;;;;;;1.83;1.20;;;4.50;99.90;;;;;;2089723;28;20179;-71
2022/02/15 04:11:17;;;;;;;1.73;1.20;;;4.50;99.90;;;;;;2089024;28;20215;-71
2022/02/15 04:12:18;;;;;;;1.40;1.10;;;4.40;99.90;;;;;;2080886;28;20223;-71
2022/02/15 04:13:19;;;;;;;2.53;1.53;;;4.40;99.90;;;;;;2072444;28;20212;-71
2022/02/15 04:14:20;;;;;;;1.87;1.00;;;4.30;99.90;;;;;;2080769;28;20185;-71
2022/02/15 04:15:21;;;;;;;2.30;1.57;;;4.40;99.90;;;;;;2089600;28;20649;-71
2022/02/15 04:16:21;;;;;;;1.20;1.10;;;4.40;99.90;;;;;;2089128;28;20222;-71
2022/02/15 04:17:22;;;;;;;2.00;1.33;;;4.40;99.90;;;;;;2089094;28;20514;-71
2022/02/15 04:18:23;;;;;;;4.70;1.17;;;4.40;99.90;;;;;;2089700;28;20199;-71
2022/02/15 04:19:23;;;;;;;3.23;1.13;;;4.40;99.90;;;;;;2089098;28;20188;-72
2022/02/15 04:20:24;;;;;;;1.80;1.03;;;4.40;99.90;;;;;;2089267;28;20195;-72
2022/02/15 04:21:25;;;;;;;1.33;1.17;;;4.40;99.90;;;;;;2089209;28;20578;-71
2022/02/15 04:22:26;;;;;;;1.57;0.90;;;4.30;99.90;;;;;;2088239;28;20188;-72
2022/02/15 04:23:26;;;;;;;1.20;1.00;;;4.30;99.90;;;;;;2089047;28;20195;-72
2022/02/15 04:24:27;;;;;;;1.63;1.37;;;4.30;99.90;;;;;;2088997;28;20211;-72
2022/02/15 04:25:28;;;;;;;1.07;0.90;;;4.20;99.90;;;;;;2089766;28;20184;-71
2022/02/15 04:26:28;;;;;;;1.40;1.10;;;4.20;99.90;;;;;;2089742;28;20180;-71
2022/02/15 04:27:30;;;;;;;2.33;1.00;;;4.20;99.90;;;;;;2089712;28;20184;-72
2022/02/15 04:28:30;;;;;;;1.00;1.00;;;4.10;99.90;;;;;;2089184;28;20180;-71
2022/02/15 04:29:31;;;;;;;0.87;0.87;;;4.00;99.90;;;;;;2088946;28;20213;-72
2022/02/15 04:30:32;;;;;;;0.80;0.70;;;4.00;99.90;;;;;;2089826;28;20189;-72
2022/02/15 04:31:32;;;;;;;2.93;1.20;;;4.00;99.90;;;;;;2089618;28;20646;-71
2022/02/15 04:32:33;;;;;;;5.00;2.10;;;3.90;99.90;;;;;;2089582;28;20168;-71
2022/02/15 04:33:34;;;;;;;2.40;0.90;;;3.90;99.90;;;;;;2088941;28;20230;-72
2022/02/15 04:34:34;;;;;;;3.17;1.10;;;3.90;99.90;;;;;;2080760;28;20593;-71
2022/02/15 04:35:35;;;;;;;3.53;1.10;;;3.90;99.90;;;;;;2089119;28;20169;-72
2022/02/15 04:36:36;;;;;;;2.73;1.40;;;3.90;99.90;;;;;;2089682;28;20662;-71
2022/02/15 04:37:37;;;;;;;3.40;2.23;;;3.90;99.90;;;;;;2089712;28;20181;-71
2022/02/15 04:38:38;;;;;;;3.22;1.95;;;3.90;99.90;;;;;;2089050;28;20192;-73
2022/02/15 04:39:38;;;;;;;1.53;1.20;;;4.00;99.90;;;;;;2080775;28;20616;-72
2022/02/15 04:40:39;;;;;;;1.60;1.33;;;4.10;99.90;;;;;;2089020;28;20183;-71
2022/02/15 04:41:40;;;;;;;1.00;0.87;;;4.00;99.90;;;;;;2089857;28;20175;-71
2022/02/15 04:42:41;;;;;;;1.20;0.93;;;4.10;99.90;;;;;;2089571;28;20184;-72
2022/02/15 04:43:42;;;;;;;1.57;1.00;;;4.30;99.90;;;;;;2089693;28;20662;-71
2022/02/15 04:44:42;;;;;;;2.50;1.20;;;4.30;99.90;;;;;;2088977;28;20161;-71
2022/02/15 04:45:43;;;;;;;2.90;1.10;;;4.40;99.90;;;;;;2088937;28;20828;-72
2022/02/15 04:46:45;;;;;;;0.80;0.80;;;4.30;99.90;;;;;;2088973;28;20175;-72
2022/02/15 04:47:45;;;;;;;2.40;1.00;;;4.20;99.90;;;;;;2089456;28;20173;-71
2022/02/15 04:48:46;;;;;;;1.70;0.70;;;4.20;99.90;;;;;;2089341;28;20555;-71
2022/02/15 04:49:47;;;;;;;0.93;0.77;;;4.20;99.90;;;;;;2088705;28;20529;-71
2022/02/15 04:50:47;;;;;;;1.50;0.80;;;4.30;99.90;;;;;;2088831;28;20179;-72
2022/02/15 04:51:48;;;;;;;2.20;0.80;;;4.40;99.90;;;;;;2088944;28;20221;-71
2022/02/15 04:52:49;;;;;;;1.47;0.97;;;4.40;99.90;;;;;;2088709;28;20299;-72
2022/02/15 04:53:50;;;;;;;2.07;0.90;;;4.40;99.90;;;;;;2089396;28;20263;-71
2022/02/15 04:54:50;;;;;;;1.30;0.73;;;4.40;99.90;;;;;;2089366;28;20650;-71
2022/02/15 04:55:51;;;;;;;2.57;1.60;;;4.30;99.90;;;;;;2089556;28;20186;-72
2022/02/15 04:56:52;;;;;;;0.93;0.80;;;4.30;99.90;;;;;;2088855;28;20181;-73
2022/02/15 04:57:53;;;;;;;1.83;0.70;;;4.20;99.90;;;;;;2088925;28;20180;-71
2022/02/15 04:58:54;;;;;;;2.10;0.80;;;4.10;99.90;;;;;;2089298;28;20180;-72
2022/02/15 04:59:54;;;;;;;2.53;0.77;;;4.00;99.90;;;;;;2089563;28;20253;-71
2022/02/15 05:00:55;;;;;;;0.90;0.80;;;3.90;99.90;;;;;;2089467;28;20179;-72
2022/02/15 05:01:56;;;;;;;3.80;0.95;;;3.90;99.90;;;;;;2088916;28;20188;-71
2022/02/15 05:02:56;;;;;;;1.07;0.90;;;3.90;99.90;;;;;;2089013;28;20222;-71
2022/02/15 05:03:57;;;;;;;2.30;1.23;;;3.80;99.90;;;;;;2089352;28;20603;-71
2022/02/15 05:04:58;;;;;;;1.50;1.10;;;3.80;99.90;;;;;;2089277;28;20535;-72
2022/02/15 05:05:59;;;;;;;1.90;0.98;;;3.70;99.90;;;;;;2088788;28;20265;-72
2022/02/15 05:07:00;;;;;;;1.30;1.00;;;3.70;99.90;;;;;;2088700;28;20226;-71
2022/02/15 05:08:01;;;;;;;0.70;0.70;;;3.70;99.90;;;;;;2089244;28;20242;-72
2022/02/15 05:09:03;;;;;;;1.40;0.93;;;3.70;99.90;;;;;;2089230;28;20658;-72
2022/02/15 05:10:05;;;;;;;1.60;1.00;;;3.70;99.90;;;;;;2089408;28;20182;-72
2022/02/15 05:11:06;;;;;;;1.15;0.95;;;3.70;99.90;;;;;;2089377;28;20184;-72
2022/02/15 05:12:07;;;;;;;1.00;0.90;;;3.80;99.90;;;;;;2088837;28;20181;-71
2022/02/15 05:13:11;;;;;;;1.73;1.30;;;3.80;99.90;;;;;;2088751;28;20190;-72
2022/02/15 05:14:11;;;;;;;1.80;1.50;;;3.80;99.90;;;;;;2089273;28;20529;-71
2022/02/15 05:15:12;;;;;;;2.30;1.00;;;3.90;99.90;;;;;;2089378;28;20198;-71
2022/02/15 05:16:13;;;;;;;1.30;1.00;;;3.90;99.90;;;;;;2089195;28;20177;-72
2022/02/15 05:17:14;;;;;;;1.83;0.80;;;4.00;99.90;;;;;;2089417;28;20194;-71
2022/02/15 05:18:15;;;;;;;1.00;0.90;;;4.10;99.90;;;;;;2088617;28;20294;-72
2022/02/15 05:19:16;;;;;;;1.53;1.20;;;4.10;99.90;;;;;;2088646;28;20194;-71
2022/02/15 05:20:17;;;;;;;1.60;1.20;;;4.20;99.90;;;;;;2088651;28;20191;-71
2022/02/15 05:21:18;;;;;;;3.23;1.27;;;4.20;99.90;;;;;;2088800;28;20188;-72
2022/02/15 05:22:19;;;;;;;1.50;1.20;;;4.10;99.90;;;;;;2088814;28;20200;-71
2022/02/15 05:23:19;;;;;;;2.00;1.30;;;4.10;99.90;;;;;;2088739;28;20179;-72
2022/02/15 05:24:20;;;;;;;1.67;1.30;;;4.20;99.90;;;;;;2088381;28;20218;-72
2022/02/15 05:25:21;;;;;;;1.77;1.27;;;4.10;99.90;;;;;;2080424;28;20549;-71